createdAt,value
2019-02-12T00:00:32.231Z,3.91
2019-02-12T00:01:32.145Z,3.86
2019-02-12T00:02:32.055Z,3.84
2019-02-12T00:03:31.969Z,3.94
2019-02-12T00:04:31.880Z,4.02
2019-02-12T00:05:31.794Z,3.94
2019-02-12T00:06:31.706Z,3.87
2019-02-12T00:07:31.629Z,3.93
2019-02-12T00:08:31.844Z,3.98
2019-02-12T00:09:31.456Z,3.91
2019-02-12T00:10:31.369Z,3.90
2019-02-12T00:11:31.280Z,3.98
2019-02-12T00:12:31.199Z,3.93
2019-02-12T00:13:31.106Z,3.90
2019-02-12T00:14:31.019Z,3.97
2019-02-12T00:15:30.934Z,4.00
2019-02-12T00:16:30.845Z,3.87
2019-02-12T00:17:30.757Z,3.98
2019-02-12T00:18:30.969Z,4.04
2019-02-12T00:19:30.583Z,3.91
2019-02-12T00:20:30.511Z,4.05
2019-02-12T00:21:30.420Z,3.91
2019-02-12T00:22:30.331Z,3.96
2019-02-12T00:23:30.246Z,3.96
2019-02-12T00:24:30.160Z,3.98
2019-02-12T00:25:30.070Z,3.98
2019-02-12T00:26:29.983Z,4.00
2019-02-12T00:27:29.896Z,3.90
2019-02-12T00:28:30.057Z,3.88
2019-02-12T00:29:29.721Z,3.90
2019-02-12T00:30:29.633Z,3.88
2019-02-12T00:31:29.549Z,3.91
2019-02-12T00:32:29.463Z,3.86
2019-02-12T00:33:29.383Z,3.80
2019-02-12T00:34:29.296Z,3.84
2019-02-12T00:35:29.211Z,3.86
2019-02-12T00:36:29.123Z,3.91
2019-02-12T00:37:29.042Z,3.86
2019-02-12T00:38:29.247Z,3.86
2019-02-12T00:39:28.858Z,3.87
2019-02-12T00:40:28.771Z,3.91
2019-02-12T00:41:28.696Z,3.91
2019-02-12T00:42:28.597Z,3.97
2019-02-12T00:43:28.509Z,3.91
2019-02-12T00:44:28.422Z,3.91
2019-02-12T00:45:28.347Z,3.97
2019-02-12T00:46:28.263Z,3.94
2019-02-12T00:47:28.173Z,3.94
2019-02-12T00:48:28.084Z,3.90
2019-02-12T00:49:27.998Z,3.97
2019-02-12T00:50:27.909Z,3.90
2019-02-12T00:51:27.829Z,3.98
2019-02-12T00:52:27.747Z,3.94
2019-02-12T00:53:27.648Z,3.98
2019-02-12T00:54:27.564Z,3.98
2019-02-12T00:55:27.480Z,3.97
2019-02-12T00:56:27.386Z,4.00
2019-02-12T00:57:27.301Z,3.91
2019-02-12T00:58:27.212Z,3.87
2019-02-12T00:59:27.148Z,3.83
2019-02-12T01:00:27.048Z,3.69
2019-02-12T01:01:26.961Z,3.72
2019-02-12T01:02:26.879Z,3.70
2019-02-12T01:03:26.785Z,3.68
2019-02-12T01:04:26.700Z,3.68
2019-02-12T01:05:26.611Z,3.66
2019-02-12T01:06:26.525Z,3.69
2019-02-12T01:07:26.438Z,3.61
2019-02-12T01:08:26.352Z,3.55
2019-02-12T01:09:26.266Z,3.66
2019-02-12T01:10:26.181Z,3.62
2019-02-12T01:11:26.091Z,3.48
2019-02-12T01:12:26.000Z,3.51
2019-02-12T01:13:25.914Z,3.50
2019-02-12T01:14:25.837Z,3.43
2019-02-12T01:15:25.739Z,3.42
2019-02-12T01:16:25.676Z,3.50
2019-02-12T01:17:25.575Z,3.43
2019-02-12T01:18:25.790Z,3.54
2019-02-12T01:19:25.400Z,3.50
2019-02-12T01:20:25.313Z,3.52
2019-02-12T01:21:26.395Z,3.58
2019-02-12T01:22:25.138Z,3.48
2019-02-12T01:23:25.051Z,3.47
2019-02-12T01:24:24.964Z,3.48
2019-02-12T01:25:24.876Z,3.50
2019-02-12T01:26:24.788Z,3.58
2019-02-12T01:27:24.702Z,3.51
2019-02-12T01:28:24.614Z,3.57
2019-02-12T01:29:24.538Z,3.62
2019-02-12T01:30:24.440Z,3.57
2019-02-12T01:31:24.353Z,3.45
2019-02-12T01:32:24.264Z,3.51
2019-02-12T01:33:24.179Z,3.57
2019-02-12T01:34:24.091Z,3.52
2019-02-12T01:35:24.014Z,3.60
2019-02-12T01:36:23.928Z,3.61
2019-02-12T01:37:23.854Z,3.68
2019-02-12T01:38:24.053Z,3.66
2019-02-12T01:39:23.664Z,3.55
2019-02-12T01:40:23.582Z,3.58
2019-02-12T01:41:23.491Z,3.55
2019-02-12T01:42:23.410Z,3.68
2019-02-12T01:43:23.328Z,3.62
2019-02-12T01:44:23.229Z,3.80
2019-02-12T01:45:23.140Z,3.75
2019-02-12T01:46:23.055Z,3.76
2019-02-12T01:47:22.965Z,3.76
2019-02-12T01:48:22.879Z,3.84
2019-02-12T01:49:22.794Z,3.86
2019-02-12T01:50:22.703Z,3.91
2019-02-12T01:51:22.617Z,3.91
2019-02-12T01:52:22.530Z,3.91
2019-02-12T01:53:22.447Z,3.90
2019-02-12T01:54:22.366Z,3.90
2019-02-12T01:55:22.279Z,3.96
2019-02-12T01:56:22.191Z,3.84
2019-02-12T01:57:22.112Z,3.80
2019-02-12T01:58:22.016Z,3.86
2019-02-12T01:59:21.931Z,3.91
2019-02-12T02:00:21.860Z,3.91
2019-02-12T02:01:21.755Z,3.90
2019-02-12T02:02:21.671Z,4.00
2019-02-12T02:03:21.830Z,3.90
2019-02-12T02:04:21.492Z,3.97
2019-02-12T02:05:21.417Z,3.98
2019-02-12T02:06:21.317Z,3.93
2019-02-12T02:07:21.231Z,3.97
2019-02-12T02:08:21.144Z,3.88
2019-02-12T02:09:21.056Z,3.97
2019-02-12T02:10:20.970Z,3.96
2019-02-12T02:11:20.895Z,3.97
2019-02-12T02:12:20.806Z,3.97
2019-02-12T02:13:20.719Z,4.06
2019-02-12T02:14:20.638Z,3.98
2019-02-12T02:15:20.543Z,4.08
2019-02-12T02:16:20.456Z,4.11
2019-02-12T02:17:20.369Z,4.06
2019-02-12T02:18:20.282Z,3.94
2019-02-12T02:19:20.207Z,3.90
2019-02-12T02:20:20.108Z,4.04
2019-02-12T02:21:20.019Z,4.05
2019-02-12T02:22:19.933Z,3.98
2019-02-12T02:23:19.845Z,3.96
2019-02-12T02:24:19.769Z,4.00
2019-02-12T02:25:19.683Z,4.00
2019-02-12T02:26:19.595Z,4.02
2019-02-12T02:27:19.508Z,4.06
2019-02-12T02:28:19.425Z,4.08
2019-02-12T02:29:19.333Z,4.14
2019-02-12T02:30:19.246Z,4.00
2019-02-12T02:31:19.159Z,4.12
2019-02-12T02:32:19.072Z,3.97
2019-02-12T02:33:18.983Z,4.16
2019-02-12T02:34:18.895Z,4.04
2019-02-12T02:35:18.810Z,4.08
2019-02-12T02:36:18.727Z,4.12
2019-02-12T02:37:18.646Z,3.97
2019-02-12T02:38:19.006Z,4.11
2019-02-12T02:39:18.473Z,4.09
2019-02-12T02:40:18.408Z,4.06
2019-02-12T02:41:18.306Z,3.94
2019-02-12T02:42:18.212Z,4.00
2019-02-12T02:43:18.124Z,4.05
2019-02-12T02:44:18.035Z,3.91
2019-02-12T02:45:17.946Z,4.02
2019-02-12T02:46:17.859Z,3.93
2019-02-12T02:47:17.773Z,3.96
2019-02-12T02:48:17.935Z,4.08
2019-02-12T02:49:17.598Z,3.93
2019-02-12T02:50:17.526Z,3.91
2019-02-12T02:51:17.435Z,3.88
2019-02-12T02:52:17.347Z,3.87
2019-02-12T02:53:17.260Z,3.91
2019-02-12T02:54:17.187Z,3.87
2019-02-12T02:55:17.088Z,3.88
2019-02-12T02:56:16.998Z,3.88
2019-02-12T02:57:16.913Z,3.97
2019-02-12T02:58:17.126Z,3.86
2019-02-12T02:59:16.737Z,3.93
2019-02-12T03:00:16.714Z,3.93
2019-02-12T03:01:16.561Z,3.86
2019-02-12T03:02:16.486Z,3.94
2019-02-12T03:03:16.398Z,3.96
2019-02-12T03:04:16.316Z,3.91
2019-02-12T03:05:16.223Z,3.86
2019-02-12T03:06:16.138Z,3.97
2019-02-12T03:07:16.049Z,3.90
2019-02-12T03:08:15.962Z,3.87
2019-02-12T03:09:15.876Z,3.90
2019-02-12T03:10:15.788Z,3.86
2019-02-12T03:11:15.699Z,3.83
2019-02-12T03:12:15.612Z,3.88
2019-02-12T03:13:15.527Z,3.84
2019-02-12T03:14:15.439Z,3.79
2019-02-12T03:15:15.349Z,3.75
2019-02-12T03:16:15.274Z,3.76
2019-02-12T03:17:15.176Z,3.80
2019-02-12T03:18:15.104Z,3.75
2019-02-12T03:19:15.023Z,3.75
2019-02-12T03:20:14.925Z,3.72
2019-02-12T03:21:14.841Z,3.66
2019-02-12T03:22:14.750Z,3.65
2019-02-12T03:23:14.920Z,3.68
2019-02-12T03:24:14.575Z,3.62
2019-02-12T03:25:14.500Z,3.61
2019-02-12T03:26:14.402Z,3.66
2019-02-12T03:27:14.314Z,3.58
2019-02-12T03:28:14.227Z,3.60
2019-02-12T03:29:14.139Z,3.62
2019-02-12T03:30:14.071Z,3.61
2019-02-12T03:31:13.967Z,3.55
2019-02-12T03:32:13.883Z,3.61
2019-02-12T03:33:13.807Z,3.68
2019-02-12T03:34:13.715Z,3.58
2019-02-12T03:35:13.633Z,3.58
2019-02-12T03:36:13.540Z,3.52
2019-02-12T03:37:13.453Z,3.43
2019-02-12T03:38:13.383Z,3.55
2019-02-12T03:39:13.278Z,3.42
2019-02-12T03:40:13.208Z,3.36
2019-02-12T03:41:13.110Z,3.45
2019-02-12T03:42:13.015Z,3.47
2019-02-12T03:43:12.932Z,3.50
2019-02-12T03:44:12.843Z,3.42
2019-02-12T03:45:12.752Z,3.48
2019-02-12T03:46:12.666Z,3.40
2019-02-12T03:47:12.591Z,3.39
2019-02-12T03:48:12.740Z,3.40
2019-02-12T03:49:12.402Z,3.39
2019-02-12T03:50:12.372Z,3.40
2019-02-12T03:51:12.228Z,3.47
2019-02-12T03:52:13.164Z,3.39
2019-02-12T03:53:12.056Z,3.43
2019-02-12T03:54:11.983Z,3.43
2019-02-12T03:55:11.881Z,3.33
2019-02-12T03:56:11.803Z,3.47
2019-02-12T03:57:11.716Z,3.45
2019-02-12T03:58:11.629Z,3.36
2019-02-12T03:59:11.545Z,3.32
2019-02-12T04:00:11.454Z,3.32
2019-02-12T04:01:11.368Z,3.31
2019-02-12T04:02:11.280Z,3.31
2019-02-12T04:03:11.192Z,3.35
2019-02-12T04:04:11.108Z,3.42
2019-02-12T04:05:11.018Z,3.43
2019-02-12T04:06:10.932Z,3.51
2019-02-12T04:07:10.849Z,3.50
2019-02-12T04:08:10.756Z,3.42
2019-02-12T04:09:10.668Z,3.54
2019-02-12T04:10:10.580Z,3.68
2019-02-12T04:11:10.494Z,3.68
2019-02-12T04:12:10.405Z,3.58
2019-02-12T04:13:10.318Z,3.75
2019-02-12T04:14:10.231Z,3.68
2019-02-12T04:15:10.144Z,3.72
2019-02-12T04:16:10.058Z,3.62
2019-02-12T04:17:09.981Z,3.73
2019-02-12T04:18:10.143Z,3.70
2019-02-12T04:19:09.807Z,3.78
2019-02-12T04:20:09.719Z,3.70
2019-02-12T04:21:09.637Z,3.70
2019-02-12T04:22:09.544Z,3.80
2019-02-12T04:23:09.469Z,3.76
2019-02-12T04:24:09.370Z,3.80
2019-02-12T04:25:09.282Z,3.76
2019-02-12T04:26:09.195Z,3.80
2019-02-12T04:27:09.107Z,3.68
2019-02-12T04:28:09.020Z,3.70
2019-02-12T04:29:08.948Z,3.69
2019-02-12T04:30:08.846Z,3.73
2019-02-12T04:31:08.761Z,3.73
2019-02-12T04:32:08.673Z,3.73
2019-02-12T04:33:08.583Z,3.73
2019-02-12T04:34:08.507Z,3.76
2019-02-12T04:35:08.420Z,3.78
2019-02-12T04:36:08.334Z,3.76
2019-02-12T04:37:08.251Z,3.70
2019-02-12T04:38:08.158Z,3.75
2019-02-12T04:39:08.074Z,3.72
2019-02-12T04:40:07.984Z,3.76
2019-02-12T04:41:07.896Z,3.76
2019-02-12T04:42:07.809Z,3.76
2019-02-12T04:43:07.722Z,3.75
2019-02-12T04:44:07.633Z,3.72
2019-02-12T04:45:07.548Z,3.75
2019-02-12T04:46:07.463Z,3.78
2019-02-12T04:47:07.373Z,3.83
2019-02-12T04:48:07.285Z,3.79
2019-02-12T04:49:07.198Z,3.78
2019-02-12T04:50:07.122Z,3.78
2019-02-12T04:51:07.036Z,3.83
2019-02-12T04:52:06.952Z,3.80
2019-02-12T04:53:06.860Z,3.80
2019-02-12T04:54:06.773Z,3.80
2019-02-12T04:55:06.684Z,3.78
2019-02-12T04:56:06.599Z,3.80
2019-02-12T04:57:06.509Z,3.84
2019-02-12T04:58:06.423Z,3.76
2019-02-12T04:59:06.353Z,3.70
2019-02-12T05:00:06.252Z,3.76
2019-02-12T05:01:06.161Z,3.76
2019-02-12T05:02:06.075Z,3.73
2019-02-12T05:03:05.989Z,3.72
2019-02-12T05:04:05.899Z,3.70
2019-02-12T05:05:05.823Z,3.76
2019-02-12T05:06:05.736Z,3.80
2019-02-12T05:07:05.648Z,3.70
2019-02-12T05:08:05.576Z,3.73
2019-02-12T05:09:05.476Z,3.76
2019-02-12T05:10:05.399Z,3.70
2019-02-12T05:11:05.299Z,3.79
2019-02-12T05:12:05.238Z,3.78
2019-02-12T05:13:05.125Z,3.70
2019-02-12T05:14:05.036Z,3.73
2019-02-12T05:15:04.950Z,3.66
2019-02-12T05:16:04.861Z,3.72
2019-02-12T05:17:04.775Z,3.66
2019-02-12T05:18:04.688Z,3.72
2019-02-12T05:19:04.603Z,3.69
2019-02-12T05:20:04.523Z,3.60
2019-02-12T05:21:04.437Z,3.62
2019-02-12T05:22:04.350Z,3.62
2019-02-12T05:23:04.265Z,3.68
2019-02-12T05:24:04.177Z,3.72
2019-02-12T05:25:04.104Z,3.70
2019-02-12T05:26:04.007Z,3.75
2019-02-12T05:27:03.913Z,3.68
2019-02-12T05:28:03.829Z,3.80
2019-02-12T05:29:03.738Z,3.78
2019-02-12T05:30:03.654Z,3.75
2019-02-12T05:31:03.582Z,3.86
2019-02-12T05:32:03.483Z,3.75
2019-02-12T05:33:03.412Z,3.80
2019-02-12T05:34:03.301Z,3.78
2019-02-12T05:35:03.217Z,3.79
2019-02-12T05:36:03.139Z,3.80
2019-02-12T05:37:03.055Z,3.78
2019-02-12T05:38:02.969Z,3.76
2019-02-12T05:39:02.881Z,3.70
2019-02-12T05:40:02.800Z,3.75
2019-02-12T05:41:02.704Z,3.75
2019-02-12T05:42:02.615Z,3.76
2019-02-12T05:43:02.532Z,3.76
2019-02-12T05:44:02.443Z,3.76
2019-02-12T05:45:02.357Z,3.80
2019-02-12T05:46:02.273Z,3.80
2019-02-12T05:47:02.180Z,3.78
2019-02-12T05:48:02.102Z,3.69
2019-02-12T05:49:02.003Z,3.73
2019-02-12T05:50:01.929Z,3.73
2019-02-12T05:51:01.829Z,3.73
2019-02-12T05:52:01.759Z,3.68
2019-02-12T05:53:01.670Z,3.58
2019-02-12T05:54:01.580Z,3.62
2019-02-12T05:55:01.491Z,3.57
2019-02-12T05:56:01.410Z,3.58
2019-02-12T05:57:01.317Z,3.57
2019-02-12T05:58:01.230Z,3.54
2019-02-12T05:59:01.162Z,3.51
2019-02-12T06:00:01.057Z,3.32
2019-02-12T06:01:00.974Z,3.43
2019-02-12T06:02:00.880Z,3.42
2019-02-12T06:03:00.793Z,3.24
2019-02-12T06:04:00.705Z,3.31
2019-02-12T06:05:00.631Z,3.29
2019-02-12T06:06:00.530Z,3.28
2019-02-12T06:07:00.450Z,3.28
2019-02-12T06:08:00.367Z,3.35
2019-02-12T06:09:00.280Z,3.31
2019-02-12T06:10:00.329Z,3.28
2019-02-12T06:11:00.108Z,3.36
2019-02-12T06:12:00.017Z,3.24
2019-02-12T06:12:59.934Z,3.28
2019-02-12T06:13:59.843Z,3.28
2019-02-12T06:14:59.758Z,3.20
2019-02-12T06:15:59.681Z,3.13
2019-02-12T06:16:59.582Z,3.15
2019-02-12T06:17:59.497Z,3.21
2019-02-12T06:18:59.411Z,3.20
2019-02-12T06:19:59.319Z,3.13
2019-02-12T06:20:59.234Z,3.20
2019-02-12T06:21:59.143Z,3.15
2019-02-12T06:23:03.888Z,3.21
2019-02-12T06:23:58.971Z,3.17
2019-02-12T06:24:58.882Z,3.24
2019-02-12T06:25:58.802Z,3.14
2019-02-12T06:26:58.708Z,3.15
2019-02-12T06:27:58.623Z,3.18
2019-02-12T06:28:58.537Z,3.10
2019-02-12T06:29:58.452Z,3.11
2019-02-12T06:30:58.369Z,3.02
2019-02-12T06:31:58.271Z,3.10
2019-02-12T06:33:07.006Z,3.06
2019-02-12T06:33:58.107Z,3.20
2019-02-12T06:34:58.021Z,3.20
2019-02-12T06:35:57.933Z,3.18
2019-02-12T06:36:57.847Z,3.31
2019-02-12T06:37:57.759Z,3.31
2019-02-12T06:38:57.670Z,3.33
2019-02-12T06:39:57.583Z,3.43
2019-02-12T06:40:57.498Z,3.35
2019-02-12T06:41:57.421Z,3.39
2019-02-12T06:42:57.338Z,3.48
2019-02-12T06:43:57.234Z,3.50
2019-02-12T06:44:57.146Z,3.55
2019-02-12T06:45:57.060Z,3.51
2019-02-12T06:46:56.974Z,3.60
2019-02-12T06:47:56.886Z,3.57
2019-02-12T06:48:56.796Z,3.60
2019-02-12T06:49:56.710Z,3.66
2019-02-12T06:50:56.621Z,3.66
2019-02-12T06:51:56.535Z,3.68
2019-02-12T06:52:56.464Z,3.62
2019-02-12T06:53:56.371Z,3.66
2019-02-12T06:54:56.275Z,3.70
2019-02-12T06:55:56.196Z,3.86
2019-02-12T06:56:56.110Z,3.73
2019-02-12T06:57:56.023Z,3.75
2019-02-12T06:58:55.935Z,3.80
2019-02-12T06:59:55.847Z,3.69
2019-02-12T07:00:55.764Z,3.70
2019-02-12T07:01:55.677Z,3.72
2019-02-12T07:02:55.836Z,3.80
2019-02-12T07:03:55.497Z,3.76
2019-02-12T07:04:55.410Z,3.79
2019-02-12T07:05:55.323Z,3.84
2019-02-12T07:06:55.237Z,3.76
2019-02-12T07:07:56.378Z,3.79
2019-02-12T07:08:55.064Z,3.70
2019-02-12T07:09:54.975Z,3.75
2019-02-12T07:10:54.899Z,3.79
2019-02-12T07:11:54.864Z,3.75
2019-02-12T07:12:54.725Z,3.79
2019-02-12T07:13:54.638Z,3.83
2019-02-12T07:14:54.549Z,3.87
2019-02-12T07:15:54.473Z,3.80
2019-02-12T07:16:54.374Z,3.84
2019-02-12T07:17:54.287Z,3.83
2019-02-12T07:18:54.582Z,3.80
2019-02-12T07:19:54.113Z,3.80
2019-02-12T07:20:54.026Z,3.76
2019-02-12T07:21:53.941Z,3.73
2019-02-12T07:22:53.870Z,3.76
2019-02-12T07:23:53.777Z,3.76
2019-02-12T07:24:53.688Z,3.84
2019-02-12T07:25:55.094Z,3.70
2019-02-12T07:26:53.518Z,3.70
2019-02-12T07:27:53.425Z,3.70
2019-02-12T07:28:53.339Z,3.69
2019-02-12T07:29:53.250Z,3.73
2019-02-12T07:30:53.168Z,3.73
2019-02-12T07:31:53.076Z,3.68
2019-02-12T07:32:52.991Z,3.70
2019-02-12T07:33:52.918Z,3.62
2019-02-12T07:34:52.817Z,3.61
2019-02-12T07:35:52.726Z,3.66
2019-02-12T07:36:52.655Z,3.66
2019-02-12T07:37:52.865Z,3.69
2019-02-12T07:38:52.476Z,3.61
2019-02-12T07:39:52.390Z,3.65
2019-02-12T07:40:52.315Z,3.65
2019-02-12T07:41:52.215Z,3.86
2019-02-12T07:42:52.128Z,3.83
2019-02-12T07:43:52.040Z,3.91
2019-02-12T07:44:51.953Z,3.91
2019-02-12T07:45:51.877Z,3.87
2019-02-12T07:46:51.776Z,3.84
2019-02-12T07:47:51.696Z,4.02
2019-02-12T07:48:51.615Z,4.20
2019-02-12T07:49:51.531Z,4.23
2019-02-12T07:50:51.443Z,4.15
2019-02-12T07:51:51.352Z,4.12
2019-02-12T07:52:51.266Z,4.04
2019-02-12T07:53:51.185Z,4.05
2019-02-12T07:54:51.091Z,4.05
2019-02-12T07:55:51.488Z,3.90
2019-02-12T07:56:50.917Z,3.91
2019-02-12T07:57:50.833Z,3.91
2019-02-12T07:58:50.743Z,3.80
2019-02-12T07:59:50.672Z,3.79
2019-02-12T08:00:50.568Z,3.73
2019-02-12T08:01:50.495Z,3.76
2019-02-12T08:02:50.407Z,3.80
2019-02-12T08:03:50.319Z,3.86
2019-02-12T08:04:50.231Z,3.79
2019-02-12T08:05:50.143Z,3.88
2019-02-12T08:06:50.055Z,3.90
2019-02-12T08:07:49.972Z,3.84
2019-02-12T08:08:49.881Z,3.84
2019-02-12T08:09:49.793Z,3.90
2019-02-12T08:10:49.704Z,3.91
2019-02-12T08:11:49.618Z,3.87
2019-02-12T08:12:49.540Z,3.84
2019-02-12T08:13:49.459Z,3.91
2019-02-12T08:14:49.369Z,3.90
2019-02-12T08:15:49.297Z,3.94
2019-02-12T08:16:49.196Z,3.94
2019-02-12T08:17:49.108Z,4.00
2019-02-12T08:18:49.019Z,4.00
2019-02-12T08:19:48.930Z,4.00
2019-02-12T08:20:48.843Z,4.00
2019-02-12T08:21:48.756Z,3.98
2019-02-12T08:22:48.669Z,4.06
2019-02-12T08:23:48.589Z,4.08
2019-02-12T08:24:48.506Z,4.11
2019-02-12T08:25:48.419Z,4.45
2019-02-12T08:26:48.331Z,4.60
2019-02-12T08:27:48.246Z,4.58
2019-02-12T08:28:48.208Z,4.78
2019-02-12T08:29:48.069Z,5.07
2019-02-12T08:30:47.983Z,5.07
2019-02-12T08:31:47.894Z,5.13
2019-02-12T08:32:47.808Z,4.94
2019-02-12T08:33:47.731Z,4.99
2019-02-12T08:34:47.648Z,4.97
2019-02-12T08:35:55.503Z,4.97
2019-02-12T08:36:47.470Z,4.99
2019-02-12T08:37:47.383Z,5.00
2019-02-12T08:38:47.295Z,4.97
2019-02-12T08:39:47.211Z,4.96
2019-02-12T08:40:47.133Z,5.04
2019-02-12T08:41:47.045Z,4.92
2019-02-12T08:42:46.958Z,5.03
2019-02-12T08:43:46.873Z,4.97
2019-02-12T08:44:46.790Z,5.02
2019-02-12T08:45:46.696Z,4.91
2019-02-12T08:46:46.614Z,4.84
2019-02-12T08:47:46.551Z,5.04
2019-02-12T08:48:46.453Z,4.99
2019-02-12T08:49:46.365Z,5.02
2019-02-12T08:50:46.274Z,5.10
2019-02-12T08:51:46.187Z,5.36
2019-02-12T08:52:46.097Z,5.46
2019-02-12T08:53:50.493Z,5.61
2019-02-12T08:54:45.936Z,5.56
2019-02-12T08:55:45.850Z,5.60
2019-02-12T08:56:45.759Z,5.56
2019-02-12T08:57:45.974Z,5.56
2019-02-12T08:58:45.585Z,5.57
2019-02-12T08:59:45.523Z,5.56
2019-02-12T09:00:47.363Z,5.63
2019-02-12T09:01:45.357Z,5.75
2019-02-12T09:02:45.250Z,6.11
2019-02-12T09:03:45.175Z,6.11
2019-02-12T09:04:45.085Z,6.28
2019-02-12T09:05:44.998Z,6.41
2019-02-12T09:06:44.911Z,6.46
2019-02-12T09:07:44.824Z,6.31
2019-02-12T09:08:44.736Z,6.34
2019-02-12T09:09:44.663Z,6.31
2019-02-12T09:10:44.580Z,6.28
2019-02-12T09:11:44.485Z,6.38
2019-02-12T09:12:44.399Z,6.54
2019-02-12T09:13:44.313Z,6.67
2019-02-12T09:14:44.236Z,6.81
2019-02-12T09:15:44.149Z,6.89
2019-02-12T09:16:44.064Z,7.03
2019-02-12T09:17:44.227Z,7.15
2019-02-12T09:18:43.903Z,7.35
2019-02-12T09:19:43.811Z,7.35
2019-02-12T09:20:43.728Z,7.46
2019-02-12T09:21:43.636Z,7.43
2019-02-12T09:22:43.574Z,7.34
2019-02-12T09:23:43.482Z,7.58
2019-02-12T09:24:43.388Z,7.63
2019-02-12T09:25:43.312Z,7.69
2019-02-12T09:26:43.225Z,7.83
2019-02-12T09:27:43.137Z,7.80
2019-02-12T09:28:43.051Z,7.80
2019-02-12T09:29:42.977Z,7.87
2019-02-12T09:30:42.888Z,7.68
2019-02-12T09:31:42.800Z,7.45
2019-02-12T09:32:42.726Z,7.27
2019-02-12T09:33:42.645Z,6.91
2019-02-12T09:34:42.559Z,6.74
2019-02-12T09:35:42.476Z,6.71
2019-02-12T09:36:42.388Z,6.51
2019-02-12T09:37:42.302Z,6.30
2019-02-12T09:38:42.232Z,6.17
2019-02-12T09:39:42.139Z,6.09
2019-02-12T09:40:42.052Z,6.17
2019-02-12T09:41:41.981Z,6.17
2019-02-12T09:42:41.889Z,6.01
2019-02-12T09:43:41.802Z,6.06
2019-02-12T09:44:41.738Z,6.14
2019-02-12T09:45:41.639Z,6.41
2019-02-12T09:46:41.556Z,6.64
2019-02-12T09:47:41.464Z,6.94
2019-02-12T09:48:41.391Z,7.05
2019-02-12T09:49:41.303Z,7.02
2019-02-12T09:50:41.215Z,6.85
2019-02-12T09:51:41.139Z,6.81
2019-02-12T09:52:41.054Z,6.54
2019-02-12T09:53:40.966Z,6.27
2019-02-12T09:54:40.878Z,6.28
2019-02-12T09:55:40.803Z,6.37
2019-02-12T09:56:40.721Z,6.43
2019-02-12T09:57:40.631Z,6.46
2019-02-12T09:58:40.542Z,6.54
2019-02-12T09:59:40.468Z,6.69
2019-02-12T10:00:40.381Z,6.80
2019-02-12T10:01:40.293Z,6.94
2019-02-12T10:02:40.218Z,6.94
2019-02-12T10:03:40.130Z,6.97
2019-02-12T10:04:40.042Z,7.12
2019-02-12T10:05:39.954Z,7.32
2019-02-12T10:06:39.883Z,7.49
2019-02-12T10:07:39.862Z,7.67
2019-02-12T10:08:39.708Z,7.64
2019-02-12T10:09:39.617Z,7.67
2019-02-12T10:10:39.542Z,7.64
2019-02-12T10:11:39.455Z,7.64
2019-02-12T10:12:39.367Z,7.49
2019-02-12T10:13:39.292Z,7.55
2019-02-12T10:14:39.205Z,7.49
2019-02-12T10:15:39.117Z,7.37
2019-02-12T10:16:39.037Z,7.37
2019-02-12T10:17:38.955Z,7.43
2019-02-12T10:18:38.867Z,7.42
2019-02-12T10:19:38.781Z,7.12
2019-02-12T10:20:38.706Z,7.09
2019-02-12T10:21:38.618Z,7.15
2019-02-12T10:22:38.673Z,7.24
2019-02-12T10:23:38.443Z,7.32
2019-02-12T10:24:38.368Z,7.35
2019-02-12T10:25:38.282Z,7.39
2019-02-12T10:26:38.194Z,7.39
2019-02-12T10:27:38.120Z,7.27
2019-02-12T10:28:38.038Z,7.48
2019-02-12T10:29:37.957Z,7.57
2019-02-12T10:30:37.857Z,7.86
2019-02-12T10:31:37.784Z,8.02
2019-02-12T10:32:37.712Z,8.15
2019-02-12T10:33:37.608Z,8.19
2019-02-12T10:34:37.532Z,8.25
2019-02-12T10:35:37.444Z,8.08
2019-02-12T10:36:37.358Z,7.95
2019-02-12T10:37:37.282Z,8.18
2019-02-12T10:38:37.199Z,8.28
2019-02-12T10:39:37.112Z,8.38
2019-02-12T10:40:37.033Z,8.59
2019-02-12T10:41:36.944Z,8.48
2019-02-12T10:42:36.859Z,8.50
2019-02-12T10:43:36.783Z,8.41
2019-02-12T10:44:36.695Z,8.74
2019-02-12T10:45:36.609Z,8.80
2019-02-12T10:46:36.534Z,8.89
2019-02-12T10:47:36.445Z,8.79
2019-02-12T10:48:36.360Z,8.84
2019-02-12T10:49:36.284Z,8.70
2019-02-12T10:50:36.196Z,8.59
2019-02-12T10:51:36.112Z,8.61
2019-02-12T10:52:36.035Z,8.45
2019-02-12T10:53:35.945Z,8.25
2019-02-12T10:54:35.871Z,8.00
2019-02-12T10:55:35.784Z,8.02
2019-02-12T10:56:35.696Z,7.74
2019-02-12T10:57:35.922Z,7.74
2019-02-12T10:58:35.535Z,8.22
2019-02-12T10:59:35.461Z,8.65
2019-02-12T11:00:35.372Z,8.62
2019-02-12T11:01:35.285Z,8.92
2019-02-12T11:02:35.212Z,9.39
2019-02-12T11:03:35.124Z,10.01
2019-02-12T11:04:35.039Z,10.61
2019-02-12T11:05:34.961Z,10.86
2019-02-12T11:06:34.885Z,10.29
2019-02-12T11:07:34.797Z,10.01
2019-02-12T11:08:34.713Z,9.75
2019-02-12T11:09:34.636Z,9.50
2019-02-12T11:10:34.547Z,9.24
2019-02-12T11:11:34.461Z,8.96
2019-02-12T11:12:34.388Z,8.50
2019-02-12T11:13:34.299Z,8.43
2019-02-12T11:14:34.224Z,8.25
2019-02-12T11:15:34.136Z,7.93
2019-02-12T11:16:34.061Z,7.97
2019-02-12T11:17:33.975Z,7.83
2019-02-12T11:18:33.898Z,7.57
2019-02-12T11:19:33.812Z,7.60
2019-02-12T11:20:33.724Z,8.36
2019-02-12T11:21:33.650Z,8.84
2019-02-12T11:22:33.562Z,8.94
2019-02-12T11:23:33.487Z,9.10
2019-02-12T11:24:35.647Z,9.02
2019-02-12T11:25:33.312Z,9.21
2019-02-12T11:26:33.237Z,9.38
2019-02-12T11:27:33.149Z,9.51
2019-02-12T11:28:33.074Z,9.65
2019-02-12T11:29:32.993Z,9.54
2019-02-12T11:30:32.900Z,9.54
2019-02-12T11:31:32.831Z,9.50
2019-02-12T11:32:32.738Z,9.96
2019-02-12T11:33:32.663Z,10.32
2019-02-12T11:34:32.575Z,10.55
2019-02-12T11:35:32.499Z,10.20
2019-02-12T11:36:32.414Z,9.89
2019-02-12T11:37:32.328Z,10.09
2019-02-12T11:38:32.263Z,10.68
2019-02-12T11:39:32.164Z,10.97
2019-02-12T11:40:32.090Z,10.92
2019-02-12T11:41:32.003Z,10.74
2019-02-12T11:42:31.926Z,10.61
2019-02-12T11:43:31.839Z,10.53
2019-02-12T11:44:31.751Z,10.59
2019-02-12T11:45:31.680Z,10.27
2019-02-12T11:46:31.590Z,10.51
2019-02-12T11:47:31.515Z,10.82
2019-02-12T11:48:31.426Z,11.17
2019-02-12T11:49:31.352Z,10.56
2019-02-12T11:50:31.265Z,10.84
2019-02-12T11:51:31.191Z,11.32
2019-02-12T11:52:31.102Z,11.49
2019-02-12T11:53:31.027Z,11.04
2019-02-12T11:54:30.944Z,11.47
2019-02-12T11:55:30.865Z,12.24
2019-02-12T11:56:30.781Z,11.91
2019-02-12T11:57:30.952Z,11.79
2019-02-12T11:58:30.627Z,11.64
2019-02-12T11:59:30.545Z,11.27
2019-02-12T12:00:30.466Z,10.67
2019-02-12T12:01:30.378Z,10.60
2019-02-12T12:02:30.304Z,10.59
2019-02-12T12:03:30.220Z,10.55
2019-02-12T12:04:30.142Z,10.56
2019-02-12T12:05:30.071Z,10.97
2019-02-12T12:06:29.992Z,11.44
2019-02-12T12:07:29.903Z,11.46
2019-02-12T12:08:29.816Z,10.82
2019-02-12T12:09:29.742Z,11.17
2019-02-12T12:10:29.655Z,11.29
2019-02-12T12:11:29.580Z,11.82
2019-02-12T12:12:29.504Z,12.59
2019-02-12T12:13:29.417Z,13.05
2019-02-12T12:14:29.344Z,13.45
2019-02-12T12:15:29.254Z,12.90
2019-02-12T12:16:29.179Z,12.78
2019-02-12T12:17:29.104Z,13.22
2019-02-12T12:18:29.017Z,13.36
2019-02-12T12:19:28.942Z,13.70
2019-02-12T12:20:28.857Z,13.63
2019-02-12T12:21:28.780Z,14.06
2019-02-12T12:22:28.707Z,13.91
2019-02-12T12:23:28.618Z,14.07
2019-02-12T12:24:28.543Z,12.57
2019-02-12T12:25:28.473Z,11.64
2019-02-12T12:26:28.380Z,10.86
2019-02-12T12:27:28.305Z,10.14
2019-02-12T12:28:28.244Z,10.76
2019-02-12T12:29:28.144Z,11.37
2019-02-12T12:30:28.069Z,11.18
2019-02-12T12:31:27.997Z,10.41
2019-02-12T12:32:27.906Z,10.26
2019-02-12T12:33:27.834Z,10.17
2019-02-12T12:34:27.756Z,10.55
2019-02-12T12:35:27.670Z,11.40
2019-02-12T12:36:27.595Z,11.62
2019-02-12T12:37:27.507Z,12.47
2019-02-12T12:38:27.434Z,12.56
2019-02-12T12:39:27.371Z,12.95
2019-02-12T12:40:27.269Z,12.01
2019-02-12T12:41:27.196Z,12.72
2019-02-12T12:42:27.107Z,13.17
2019-02-12T12:43:27.045Z,11.46
2019-02-12T12:44:26.958Z,11.57
2019-02-12T12:45:26.871Z,11.91
2019-02-12T12:46:26.796Z,10.97
2019-02-12T12:47:26.709Z,10.55
2019-02-12T12:48:26.633Z,10.44
2019-02-12T12:49:27.340Z,10.02
2019-02-12T12:50:26.495Z,9.72
2019-02-12T12:51:26.395Z,9.33
2019-02-12T12:52:26.322Z,8.92
2019-02-12T12:53:26.232Z,9.08
2019-02-12T12:54:26.161Z,9.56
2019-02-12T12:55:26.086Z,10.32
2019-02-12T12:56:25.997Z,10.89
2019-02-12T12:57:25.922Z,11.24
2019-02-12T12:58:25.834Z,11.35
2019-02-12T12:59:25.753Z,11.46
2019-02-12T13:00:25.672Z,11.60
2019-02-12T13:01:25.589Z,11.57
2019-02-12T13:02:25.510Z,11.51
2019-02-12T13:03:25.423Z,12.02
2019-02-12T13:57:57.641Z,8.55
2019-02-12T13:58:57.565Z,8.26
2019-02-12T14:07:40.789Z,7.25
2019-02-12T14:08:40.704Z,7.24
2019-02-12T14:09:40.615Z,7.13
2019-02-12T14:10:40.529Z,7.24
2019-02-12T14:11:40.455Z,7.20
2019-02-12T14:12:40.368Z,7.10
2019-02-12T14:13:40.291Z,7.16
2019-02-12T14:14:40.204Z,7.15
2019-02-12T14:15:40.117Z,7.24